This is the latest recevied weather packets stored in our database for station/object EA1PVC-10. If no packets are shown the sender has not sent any weather packets the latest 10 day(s).
| Time | Temp. | Humidity | Pressure | Rain* | Wind** | Luminosity | Snow |
|---|---|---|---|---|---|---|---|
| 1777185142 | 13.33° C | 85% | 925.5 hPa | - | - | - | - |
| 1777184242 | 12.78° C | 85% | 925.3 hPa | - | - | - | - |
| 1777183342 | 12.78° C | 85% | 925 hPa | - | - | - | - |
| 1777182442 | 12.78° C | 86% | 925 hPa | - | - | - | - |
| 1777181542 | 12.78° C | 87% | 924.7 hPa | - | - | - | - |
| 1777180642 | 7.78° C | 86% | 917.8 hPa | - | - | - | - |
| 1777179730 | 12.78° C | 87% | 924.5 hPa | - | - | - | - |
| 1777178830 | 12.22° C | 87% | 924.5 hPa | - | - | - | - |
| 1777177930 | 12.22° C | 86% | 924.4 hPa | - | - | - | - |
| 1777177030 | 12.22° C | 85% | 924.4 hPa | - | - | - | - |
| 1777176130 | 12.78° C | 85% | 924.4 hPa | - | - | - | - |
| 1777175230 | 12.78° C | 86% | 924.5 hPa | - | - | - | - |
| 1777174330 | 12.78° C | 86% | 924.4 hPa | - | - | - | - |
| 1777173430 | 12.78° C | 86% | 924.5 hPa | - | - | - | - |
| 1777172530 | 12.78° C | 85% | 924.4 hPa | - | - | - | - |
| 1777171630 | 13.33° C | 84% | 924.5 hPa | - | - | - | - |
| 1777170730 | 13.33° C | 83% | 924.6 hPa | - | - | - | - |
| 1777169830 | 8.89° C | 81% | 918 hPa | - | - | - | - |
| 1777168918 | 13.89° C | 78% | 924.5 hPa | - | - | - | - |
| 1777168018 | 14.44° C | 75% | 924.4 hPa | - | - | - | - |
| 1777167118 | 15° C | 74% | 924.4 hPa | - | - | - | - |
| 1777166219 | 15° C | 73% | 924.3 hPa | - | - | - | - |
| 1777165318 | 15.56° C | 74% | 924.5 hPa | - | - | - | - |
| 1777164418 | 15.56° C | 72% | 924.5 hPa | - | - | - | - |
| 1777163518 | 16.11° C | 72% | 924.7 hPa | - | - | - | - |
* Rain since midnight (hover to see other rain measurements)
** Current wind speed in m/s (hover to see current wind gust speed)